createdAt,value
2022-10-03T00:00:29.455Z,10.80
2022-10-03T00:03:34.565Z,10.70
2022-10-03T00:08:02.903Z,10.80
2022-10-03T00:10:51.830Z,10.80
2022-10-03T00:15:26.493Z,10.80
2022-10-03T00:27:40.060Z,10.90
2022-10-03T00:30:21.317Z,10.90
2022-10-03T00:33:13.398Z,10.90
2022-10-03T00:36:12.984Z,10.90
2022-10-03T00:39:43.480Z,10.90
2022-10-03T00:51:58.290Z,10.90
2022-10-03T00:58:39.015Z,10.70
2022-10-03T01:01:33.593Z,10.60
2022-10-03T01:05:46.462Z,10.60
2022-10-03T01:11:39.355Z,10.50
2022-10-03T01:15:43.294Z,10.60
2022-10-03T01:19:55.763Z,10.60
2022-10-03T01:23:07.178Z,10.70
2022-10-03T01:26:45.686Z,10.70
2022-10-03T01:29:37.335Z,10.80
2022-10-03T01:32:10.725Z,10.80
2022-10-03T01:36:39.991Z,10.80
2022-10-03T01:39:26.906Z,10.90
2022-10-03T01:43:21.870Z,10.90
2022-10-03T01:46:22.127Z,10.90
2022-10-03T01:55:52.779Z,10.90
2022-10-03T01:58:45.433Z,11.00
2022-10-03T02:07:21.356Z,11.00
2022-10-03T02:10:06.610Z,11.00
2022-10-03T02:14:09.103Z,11.00
2022-10-03T02:16:46.249Z,11.00
2022-10-03T02:19:41.801Z,11.10
2022-10-03T02:22:46.107Z,11.00
2022-10-03T02:25:39.853Z,11.10
2022-10-03T02:30:36.976Z,11.10
2022-10-03T02:33:37.172Z,11.10
2022-10-03T02:36:39.389Z,11.10
2022-10-03T02:39:35.148Z,11.10
2022-10-03T02:47:49.369Z,11.20
2022-10-03T02:54:11.233Z,11.20
2022-10-03T02:57:16.766Z,11.20
2022-10-03T03:00:36.789Z,11.20
2022-10-03T03:04:46.179Z,11.20
2022-10-03T03:08:52.374Z,11.20
2022-10-03T03:15:13.848Z,11.20
2022-10-03T03:18:10.550Z,11.20
2022-10-03T03:27:37.678Z,11.20
2022-10-03T03:30:16.022Z,11.20
2022-10-03T03:42:39.718Z,11.20
2022-10-03T03:48:41.202Z,11.20
2022-10-03T03:51:23.136Z,11.20
2022-10-03T03:54:22.563Z,11.20
2022-10-03T03:58:44.578Z,11.20
2022-10-03T04:03:20.757Z,11.20
2022-10-03T04:06:06.385Z,11.10
2022-10-03T04:09:08.087Z,11.10
2022-10-03T04:12:00.676Z,11.10
2022-10-03T04:14:56.100Z,11.10
2022-10-03T04:17:57.803Z,11.10
2022-10-03T04:27:31.969Z,11.10
2022-10-03T04:30:22.942Z,11.10
2022-10-03T04:34:41.789Z,11.10
2022-10-03T04:38:05.171Z,11.10
2022-10-03T04:42:40.529Z,11.00
2022-10-03T04:56:58.583Z,11.10
2022-10-03T04:59:36.102Z,11.10
2022-10-03T05:05:19.079Z,11.20
2022-10-03T05:09:37.897Z,11.10
2022-10-03T05:12:34.425Z,11.20
2022-10-03T05:16:43.951Z,11.20
2022-10-03T05:25:21.188Z,11.20
2022-10-03T05:30:53.859Z,11.10
2022-10-03T05:35:00.017Z,11.00
2022-10-03T05:39:18.465Z,10.90
2022-10-03T05:42:17.910Z,10.90
2022-10-03T05:49:46.451Z,10.90
2022-10-03T05:52:32.498Z,11.00
2022-10-03T06:01:55.161Z,11.10
2022-10-03T06:05:05.197Z,11.10
2022-10-03T06:08:29.267Z,11.30
2022-10-03T06:11:54.131Z,11.50
2022-10-03T06:18:51.694Z,11.50
2022-10-03T06:25:40.771Z,11.40
2022-10-03T06:38:03.597Z,11.20
2022-10-03T06:47:37.543Z,11.30
2022-10-03T06:55:11.977Z,11.20
2022-10-03T06:58:15.781Z,11.20
2022-10-03T07:06:31.506Z,11.30
2022-10-03T07:09:32.614Z,11.30
2022-10-03T07:13:44.517Z,11.30
2022-10-03T07:19:36.821Z,11.30
2022-10-03T07:25:21.229Z,11.40
2022-10-03T07:28:39.250Z,11.60
2022-10-03T07:31:32.805Z,10.00
2022-10-03T07:36:32.520Z,11.60
2022-10-03T07:39:18.286Z,11.70
2022-10-03T07:44:03.254Z,11.90
2022-10-03T07:47:29.744Z,12.10
2022-10-03T07:53:56.059Z,12.50
2022-10-03T08:03:24.944Z,12.60
2022-10-03T08:06:17.582Z,12.70
2022-10-03T08:09:29.407Z,13.30
2022-10-03T08:13:50.436Z,13.00
2022-10-03T08:18:27.613Z,13.00
2022-10-03T08:22:47.008Z,13.10
2022-10-03T08:27:13.675Z,13.30
2022-10-03T08:31:47.557Z,13.20
2022-10-03T08:36:03.616Z,13.00
2022-10-03T08:39:00.413Z,12.90
2022-10-03T08:42:10.010Z,12.80
2022-10-03T08:48:09.214Z,12.90
2022-10-03T08:50:57.965Z,12.90
2022-10-03T08:56:25.054Z,12.60
2022-10-03T08:59:33.501Z,12.90
2022-10-03T09:04:56.190Z,13.10
2022-10-03T09:07:52.917Z,13.30
2022-10-03T09:14:11.104Z,13.40
2022-10-03T09:17:02.466Z,14.00
2022-10-03T09:20:04.385Z,13.90
2022-10-03T09:24:07.690Z,13.90
2022-10-03T09:35:12.330Z,14.10
2022-10-03T09:41:29.812Z,13.70
2022-10-03T09:47:28.588Z,13.50
2022-10-03T09:52:52.536Z,13.70
2022-10-03T09:59:49.013Z,13.80
2022-10-03T10:02:52.890Z,13.80
2022-10-03T10:06:53.525Z,14.90
2022-10-03T10:16:27.993Z,14.90
2022-10-03T10:19:13.311Z,14.50
2022-10-03T10:22:04.924Z,14.60
2022-10-03T10:26:20.698Z,14.50
2022-10-03T10:29:15.975Z,14.30
2022-10-03T10:32:21.296Z,14.00
2022-10-03T10:37:46.293Z,14.10
2022-10-03T10:43:28.855Z,14.20
2022-10-03T10:46:27.364Z,13.70
2022-10-03T10:55:12.362Z,14.20
2022-10-03T11:00:57.935Z,15.90
2022-10-03T11:04:07.246Z,15.00
2022-10-03T11:07:15.097Z,14.90
2022-10-03T11:13:13.465Z,14.50
2022-10-03T11:17:26.330Z,14.10
2022-10-03T11:20:28.748Z,14.40
2022-10-03T11:26:45.464Z,14.50
2022-10-03T11:29:46.653Z,14.70
2022-10-03T11:33:40.500Z,15.40
2022-10-03T11:37:08.915Z,15.40
2022-10-03T11:42:24.700Z,15.50
2022-10-03T11:45:06.333Z,15.30
2022-10-03T11:49:15.592Z,15.50
2022-10-03T11:51:57.470Z,15.20
2022-10-03T11:54:32.589Z,14.80
2022-10-03T11:57:42.680Z,14.80
2022-10-03T12:00:20.067Z,14.70
2022-10-03T12:09:56.658Z,14.70
2022-10-03T12:12:45.654Z,14.40
2022-10-03T12:15:35.304Z,14.30
2022-10-03T12:18:11.425Z,14.30
2022-10-03T12:21:06.019Z,14.10
2022-10-03T12:23:56.408Z,14.00
2022-10-03T12:26:42.671Z,14.10
2022-10-03T12:29:13.075Z,14.20
2022-10-03T12:35:14.837Z,14.20
2022-10-03T12:37:54.198Z,14.30
2022-10-03T12:40:38.232Z,15.00
2022-10-03T12:44:48.920Z,15.40
2022-10-03T12:47:54.470Z,15.60
2022-10-03T12:50:45.361Z,15.80
2022-10-03T12:57:43.761Z,16.00
2022-10-03T13:00:19.136Z,16.00
2022-10-03T13:03:22.990Z,15.70
2022-10-03T13:06:12.198Z,15.60
2022-10-03T13:11:54.367Z,15.50
2022-10-03T13:22:32.953Z,15.10
2022-10-03T13:25:32.052Z,14.50
2022-10-03T13:28:07.268Z,14.60
2022-10-03T13:30:53.339Z,14.60
2022-10-03T13:33:31.738Z,14.70
2022-10-03T13:36:25.048Z,14.70
2022-10-03T13:39:06.603Z,14.60
2022-10-03T13:43:37.983Z,14.60
2022-10-03T13:46:20.855Z,14.40
2022-10-03T13:48:59.719Z,14.50
2022-10-03T13:51:46.977Z,14.50
2022-10-03T13:54:47.248Z,14.40
2022-10-03T13:57:24.864Z,14.40
2022-10-03T14:00:18.448Z,14.50
2022-10-03T14:02:59.296Z,14.80
2022-10-03T14:19:02.430Z,15.00
2022-10-03T14:21:56.001Z,15.00
2022-10-03T14:24:41.757Z,14.30
2022-10-03T14:28:03.767Z,14.30
2022-10-03T14:31:04.982Z,14.40
2022-10-03T14:35:13.544Z,14.30
2022-10-03T14:38:06.557Z,14.10
2022-10-03T14:40:56.848Z,14.10
2022-10-03T14:43:46.555Z,14.10
2022-10-03T14:46:15.122Z,14.10
2022-10-03T14:48:45.188Z,15.10
2022-10-03T14:51:35.825Z,14.00
2022-10-03T14:54:24.031Z,14.00
2022-10-03T14:56:54.118Z,14.00
2022-10-03T14:59:34.417Z,14.00
2022-10-03T15:02:37.919Z,13.90
2022-10-03T15:07:08.635Z,13.80
2022-10-03T15:09:56.932Z,13.70
2022-10-03T15:12:27.936Z,13.60
2022-10-03T15:16:49.648Z,13.50
2022-10-03T15:20:20.980Z,13.40
2022-10-03T15:22:52.558Z,13.40
2022-10-03T15:25:38.887Z,13.40
2022-10-03T15:28:13.067Z,13.30
2022-10-03T15:30:39.614Z,13.40
2022-10-03T15:33:28.648Z,13.50
2022-10-03T15:36:00.159Z,13.60
2022-10-03T15:38:51.071Z,13.60
2022-10-03T15:41:39.075Z,13.60
2022-10-03T15:44:15.510Z,13.60
2022-10-03T15:46:57.968Z,13.70
2022-10-03T15:49:32.087Z,13.70
2022-10-03T15:52:09.454Z,13.80
2022-10-03T15:54:41.096Z,13.80
2022-10-03T15:57:16.953Z,13.80
2022-10-03T15:59:45.276Z,13.90
2022-10-03T16:02:35.731Z,13.90
2022-10-03T16:05:25.915Z,13.90
2022-10-03T16:08:11.683Z,13.80
2022-10-03T16:10:44.642Z,13.80
2022-10-03T16:13:49.598Z,13.60
2022-10-03T16:16:43.471Z,13.70
2022-10-03T16:26:00.894Z,13.60
2022-10-03T16:28:39.099Z,13.40
2022-10-03T16:31:54.933Z,13.30
2022-10-03T16:34:23.734Z,13.20
2022-10-03T16:36:50.402Z,13.00
2022-10-03T16:39:40.379Z,12.90
2022-10-03T16:42:20.078Z,12.80
2022-10-03T16:44:52.020Z,12.70
2022-10-03T16:47:19.589Z,12.60
2022-10-03T16:50:15.482Z,12.50
2022-10-03T16:52:43.793Z,12.50
2022-10-03T16:55:23.433Z,12.40
2022-10-03T16:57:52.441Z,12.40
2022-10-03T17:00:30.898Z,12.30
2022-10-03T17:02:57.589Z,12.30
2022-10-03T17:05:24.255Z,12.30
2022-10-03T17:08:06.595Z,12.20
2022-10-03T17:10:40.225Z,12.20
2022-10-03T17:13:18.757Z,12.20
2022-10-03T17:15:54.798Z,12.20
2022-10-03T17:18:29.384Z,12.20
2022-10-03T17:21:58.572Z,12.10
2022-10-03T17:24:38.473Z,12.00
2022-10-03T17:28:10.681Z,11.90
2022-10-03T17:30:49.053Z,11.80
2022-10-03T17:34:58.466Z,11.60
2022-10-03T17:39:04.925Z,11.50
2022-10-03T17:43:47.716Z,11.50
2022-10-03T17:46:27.199Z,11.30
2022-10-03T17:49:18.992Z,11.30
2022-10-03T17:51:48.949Z,11.30
2022-10-03T17:54:20.852Z,11.30
2022-10-03T17:56:57.792Z,11.30
2022-10-03T17:59:31.939Z,11.20
2022-10-03T18:02:24.584Z,11.20
2022-10-03T18:05:00.006Z,11.20
2022-10-03T18:07:26.734Z,11.20
2022-10-03T18:09:54.030Z,11.20
2022-10-03T18:14:01.091Z,11.20
2022-10-03T18:16:34.645Z,11.20
2022-10-03T18:20:58.719Z,11.20
2022-10-03T18:23:57.658Z,11.20
2022-10-03T18:26:31.980Z,11.20
2022-10-03T18:29:30.555Z,11.30
2022-10-03T18:32:22.761Z,11.30
2022-10-03T18:34:59.215Z,11.40
2022-10-03T18:38:57.767Z,11.50
2022-10-03T18:41:25.220Z,11.50
2022-10-03T18:43:59.147Z,11.50
2022-10-03T18:47:27.443Z,11.60
2022-10-03T18:50:21.515Z,11.70
2022-10-03T18:52:55.837Z,11.80
2022-10-03T18:55:42.104Z,11.80
2022-10-03T18:58:48.823Z,11.90
2022-10-03T19:01:45.516Z,12.00
2022-10-03T19:05:47.094Z,12.10
2022-10-03T19:08:29.371Z,12.10
2022-10-03T19:11:21.184Z,12.10
2022-10-03T19:19:44.219Z,12.20
2022-10-03T19:22:13.310Z,12.20
2022-10-03T19:24:57.756Z,12.70
2022-10-03T19:27:48.020Z,12.10
2022-10-03T19:30:19.726Z,12.10
2022-10-03T19:33:29.039Z,12.00
2022-10-03T19:35:58.141Z,11.90
2022-10-03T19:38:27.439Z,11.90
2022-10-03T19:41:19.853Z,11.80
2022-10-03T19:43:50.625Z,11.80
2022-10-03T19:53:16.389Z,11.70
2022-10-03T19:55:42.730Z,11.80
2022-10-03T19:58:24.021Z,11.80
2022-10-03T20:00:57.823Z,11.80
2022-10-03T20:03:46.918Z,11.80
2022-10-03T20:06:24.054Z,11.80
2022-10-03T20:09:15.758Z,11.80
2022-10-03T20:11:48.673Z,11.80
2022-10-03T20:14:26.575Z,11.80
2022-10-03T20:16:56.203Z,11.80
2022-10-03T20:19:28.104Z,11.80
2022-10-03T20:21:56.269Z,11.80
2022-10-03T20:24:37.147Z,11.80
2022-10-03T20:27:51.723Z,11.80
2022-10-03T20:30:37.687Z,11.80
2022-10-03T20:33:03.902Z,11.70
2022-10-03T20:35:56.172Z,11.70
2022-10-03T20:38:36.197Z,11.70
2022-10-03T20:41:18.333Z,11.70
2022-10-03T20:45:13.817Z,11.70
2022-10-03T20:48:44.456Z,11.70
2022-10-03T20:51:24.021Z,11.70
2022-10-03T20:53:54.072Z,11.70
2022-10-03T20:56:24.560Z,11.70
2022-10-03T20:58:53.565Z,11.70
2022-10-03T21:01:28.002Z,11.70
2022-10-03T21:05:34.825Z,11.70
2022-10-03T21:08:03.662Z,11.70
2022-10-03T21:11:15.253Z,11.70
2022-10-03T21:13:59.911Z,11.70
2022-10-03T21:16:34.606Z,11.70
2022-10-03T21:19:06.762Z,11.70
2022-10-03T21:21:43.351Z,11.60
2022-10-03T21:24:26.102Z,11.60
2022-10-03T21:26:58.053Z,11.50
2022-10-03T21:29:34.984Z,11.50
2022-10-03T21:33:48.896Z,11.50
2022-10-03T21:36:22.280Z,11.50
2022-10-03T21:38:49.664Z,11.60
2022-10-03T21:43:14.351Z,11.60
2022-10-03T21:45:50.148Z,11.70
2022-10-03T21:48:46.492Z,11.70
2022-10-03T21:56:11.856Z,11.70
2022-10-03T22:00:27.459Z,11.70
2022-10-03T22:03:15.742Z,11.70
2022-10-03T22:06:02.781Z,11.70
2022-10-03T22:08:40.506Z,11.70
2022-10-03T22:14:43.506Z,11.70
2022-10-03T22:19:17.458Z,11.70
2022-10-03T22:26:13.087Z,11.70
2022-10-03T22:32:08.456Z,11.70
2022-10-03T22:35:06.427Z,11.80
2022-10-03T22:37:32.716Z,11.80
2022-10-03T22:39:59.334Z,11.80
2022-10-03T22:42:25.675Z,11.80
2022-10-03T22:44:51.970Z,11.80
2022-10-03T22:47:22.977Z,11.80
2022-10-03T22:49:51.002Z,11.80
2022-10-03T22:52:20.775Z,11.80
2022-10-03T22:54:47.186Z,11.80
2022-10-03T22:57:13.376Z,11.80
2022-10-03T22:59:49.131Z,11.80
2022-10-03T23:02:15.340Z,11.80
2022-10-03T23:04:54.540Z,11.80
2022-10-03T23:09:06.932Z,11.80
2022-10-03T23:11:33.160Z,11.80
2022-10-03T23:14:23.964Z,11.80
2022-10-03T23:18:25.501Z,11.80
2022-10-03T23:21:25.144Z,11.80
2022-10-03T23:24:08.185Z,11.80
2022-10-03T23:30:09.943Z,11.80
2022-10-03T23:32:54.886Z,11.80
2022-10-03T23:36:23.256Z,11.80
2022-10-03T23:38:53.417Z,11.70
2022-10-03T23:41:31.722Z,11.70
2022-10-03T23:43:58.793Z,11.80
2022-10-03T23:46:27.032Z,11.80
2022-10-03T23:48:55.336Z,11.70
2022-10-03T23:51:32.229Z,11.70
2022-10-03T23:54:04.880Z,11.70
2022-10-03T23:56:41.277Z,11.70
2022-10-03T23:59:40.691Z,11.70
